createdAt,value
2019-03-19T00:01:02.596Z,98015.75
2019-03-19T00:04:09.339Z,98020.23
2019-03-19T00:07:16.869Z,98014.69
2019-03-19T00:10:23.641Z,98019.63
2019-03-19T00:13:31.583Z,98019.49
2019-03-19T00:16:39.016Z,98021.24
2019-03-19T00:19:45.523Z,98025.75
2019-03-19T00:22:52.156Z,98030.65
2019-03-19T00:25:59.882Z,98028.74
2019-03-19T00:29:06.363Z,98033.55
2019-03-19T00:32:12.766Z,98036.75
2019-03-19T00:35:19.015Z,98039.95
2019-03-19T00:38:25.510Z,98049.58
2019-03-19T00:41:32.235Z,98052.38
2019-03-19T00:44:39.149Z,98050.02
2019-03-19T00:47:45.838Z,98053.38
2019-03-19T00:50:52.458Z,98055.59
2019-03-19T00:53:59.173Z,98045.70
2019-03-19T00:57:05.893Z,98055.45
2019-03-19T01:00:12.915Z,98054.50
2019-03-19T01:03:19.341Z,98056.25
2019-03-19T01:06:25.765Z,98058.17
2019-03-19T01:09:33.069Z,98062.37
2019-03-19T01:12:39.981Z,98062.36
2019-03-19T01:15:46.442Z,98069.81
2019-03-19T01:18:53.067Z,98064.76
2019-03-19T01:21:59.678Z,98068.06
2019-03-19T01:25:07.231Z,98064.63
2019-03-19T01:28:13.723Z,98073.13
2019-03-19T01:31:21.139Z,98084.03
2019-03-19T01:34:27.500Z,98081.97
2019-03-19T01:37:33.838Z,98082.23
2019-03-19T01:40:40.270Z,98068.72
2019-03-19T01:43:46.686Z,98065.39
2019-03-19T01:46:53.244Z,98060.48
2019-03-19T01:50:00.337Z,98058.77
2019-03-19T01:53:06.702Z,98071.95
2019-03-19T01:56:13.871Z,98081.11
2019-03-19T01:59:20.363Z,98078.97
2019-03-19T02:02:26.853Z,98072.16
2019-03-19T02:05:33.409Z,98072.74
2019-03-19T02:08:40.062Z,98077.08
2019-03-19T02:11:46.667Z,98079.74
2019-03-19T02:14:53.073Z,98086.84
2019-03-19T02:17:59.677Z,98093.44
2019-03-19T02:21:06.385Z,98093.23
2019-03-19T02:24:13.173Z,98085.89
2019-03-19T02:27:19.647Z,98084.72
2019-03-19T02:30:26.272Z,98086.16
2019-03-19T02:33:33.036Z,98101.78
2019-03-19T02:36:39.245Z,98100.98
2019-03-19T02:39:45.841Z,98095.56
2019-03-19T02:42:52.464Z,98094.91
2019-03-19T02:45:59.380Z,98102.23
2019-03-19T02:49:06.122Z,98101.84
2019-03-19T02:52:12.770Z,98102.11
2019-03-19T02:55:19.277Z,98103.42
2019-03-19T02:58:26.234Z,98109.52
2019-03-19T03:01:32.977Z,98119.95
2019-03-19T03:04:39.683Z,98120.95
2019-03-19T03:07:46.110Z,98129.19
2019-03-19T03:10:52.371Z,98130.98
2019-03-19T03:13:58.841Z,98139.95
2019-03-19T03:17:05.542Z,98141.14
2019-03-19T03:20:12.434Z,98143.45
2019-03-19T03:23:19.474Z,98136.91
2019-03-19T03:26:25.653Z,98142.98
2019-03-19T03:29:32.243Z,98154.92
2019-03-19T03:32:38.518Z,98153.98
2019-03-19T03:35:44.954Z,98148.78
2019-03-19T03:38:51.530Z,98152.03
2019-03-19T03:41:57.984Z,98156.42
2019-03-19T03:45:04.666Z,98156.32
2019-03-19T03:48:11.201Z,98151.70
2019-03-19T03:51:18.238Z,98160.50
2019-03-19T03:54:24.877Z,98159.91
2019-03-19T03:57:31.580Z,98172.28
2019-03-19T04:00:38.535Z,98175.36
2019-03-19T04:03:45.520Z,98182.30
2019-03-19T04:06:52.540Z,98176.38
2019-03-19T04:09:59.029Z,98178.16
2019-03-19T04:13:05.979Z,98188.70
2019-03-19T04:16:12.574Z,98193.06
2019-03-19T04:19:19.321Z,98185.88
2019-03-19T04:22:26.003Z,98197.73
2019-03-19T04:25:32.663Z,98197.70
2019-03-19T04:28:39.531Z,98207.42
2019-03-19T04:31:45.975Z,98208.64
2019-03-19T04:34:52.629Z,98204.48
2019-03-19T04:37:59.095Z,98206.48
2019-03-19T04:41:06.102Z,98207.12
2019-03-19T04:44:12.841Z,98210.28
2019-03-19T04:47:20.537Z,98218.45
2019-03-19T04:50:27.552Z,98217.12
2019-03-19T04:53:33.919Z,98221.69
2019-03-19T04:56:40.359Z,98227.27
2019-03-19T04:59:47.251Z,98230.34
2019-03-19T05:02:53.737Z,98234.63
2019-03-19T05:06:00.553Z,98233.58
2019-03-19T05:09:08.312Z,98247.73
2019-03-19T05:12:15.161Z,98244.30
2019-03-19T05:15:22.109Z,98235.48
2019-03-19T05:18:31.281Z,98233.11
2019-03-19T05:21:37.943Z,98233.41
2019-03-19T05:24:45.142Z,98244.93
2019-03-19T05:27:51.766Z,98246.58
2019-03-19T05:30:59.018Z,98246.58
2019-03-19T05:34:06.178Z,98246.92
2019-03-19T05:37:12.802Z,98256.81
2019-03-19T05:40:20.015Z,98260.70
2019-03-19T05:43:27.319Z,98255.56
2019-03-19T05:46:34.459Z,98263.30
2019-03-19T05:49:40.983Z,98270.17
2019-03-19T05:52:48.714Z,98272.23
2019-03-19T05:55:55.576Z,98279.00
2019-03-19T05:59:02.690Z,98270.31
2019-03-19T06:02:09.244Z,98278.10
2019-03-19T06:05:15.685Z,98285.34
2019-03-19T06:08:22.144Z,98281.95
2019-03-19T06:11:28.571Z,98286.79
2019-03-19T06:14:38.466Z,98280.41
2019-03-19T06:17:45.010Z,98283.75
2019-03-19T06:20:51.629Z,98286.30
2019-03-19T06:23:57.785Z,98291.08
2019-03-19T06:27:03.977Z,98294.03
2019-03-19T06:30:13.238Z,98295.72
2019-03-19T06:33:19.738Z,98300.87
2019-03-19T06:36:26.681Z,98300.16
2019-03-19T06:39:33.227Z,98303.00
2019-03-19T06:42:42.663Z,98303.20
2019-03-19T06:45:50.052Z,98304.45
2019-03-19T06:48:56.803Z,98317.16
2019-03-19T06:52:03.432Z,98313.28
2019-03-19T06:55:11.412Z,98319.48
2019-03-19T06:58:17.994Z,98316.96
2019-03-19T07:01:24.838Z,98310.37
2019-03-19T07:04:31.747Z,98321.20
2019-03-19T07:07:38.462Z,98326.11
2019-03-19T07:10:45.042Z,98325.31
2019-03-19T07:13:52.173Z,98325.46
2019-03-19T07:16:58.763Z,98324.93
2019-03-19T07:20:05.798Z,98323.84
2019-03-19T07:23:12.085Z,98322.06
2019-03-19T07:26:18.648Z,98325.34
2019-03-19T07:29:25.275Z,98331.00
2019-03-19T07:32:31.772Z,98334.86
2019-03-19T07:35:38.252Z,98336.90
2019-03-19T07:38:44.586Z,98339.86
2019-03-19T07:41:51.852Z,98342.53
2019-03-19T07:44:59.033Z,98347.72
2019-03-19T07:48:05.735Z,98342.69
2019-03-19T07:51:12.540Z,98350.13
2019-03-19T07:54:19.629Z,98349.92
2019-03-19T07:57:26.029Z,98358.20
2019-03-19T08:00:32.455Z,98365.48
2019-03-19T08:03:39.184Z,98367.38
2019-03-19T08:06:46.049Z,98371.45
2019-03-19T08:09:52.606Z,98366.99
2019-03-19T08:12:59.567Z,98362.80
2019-03-19T08:16:06.139Z,98368.36
2019-03-19T08:19:13.181Z,98384.29
2019-03-19T08:22:19.741Z,98384.30
2019-03-19T08:25:27.112Z,98392.22
2019-03-19T08:28:33.916Z,98400.05
2019-03-19T08:31:40.629Z,98400.17
2019-03-19T08:34:47.376Z,98402.38
2019-03-19T08:37:54.065Z,98406.56
2019-03-19T08:41:02.275Z,98406.31
2019-03-19T08:44:09.210Z,98411.84
2019-03-19T08:47:15.951Z,98417.80
2019-03-19T08:50:22.368Z,98419.62
2019-03-19T08:53:28.933Z,98422.33
2019-03-19T08:56:35.990Z,98417.66
2019-03-19T08:59:42.848Z,98424.94
2019-03-19T09:02:52.434Z,98426.72
2019-03-19T09:05:59.341Z,98426.88
2019-03-19T09:09:08.837Z,98436.98
2019-03-19T09:12:15.384Z,98446.59
2019-03-19T09:15:21.880Z,98436.50
2019-03-19T09:18:28.485Z,98435.03
2019-03-19T09:21:35.653Z,98441.97
2019-03-19T09:24:42.419Z,98440.73
2019-03-19T09:27:49.239Z,98438.94
2019-03-19T09:30:56.013Z,98447.06
2019-03-19T09:34:03.009Z,98444.33
2019-03-19T09:37:09.627Z,98441.61
2019-03-19T09:40:16.280Z,98443.97
2019-03-19T09:43:22.805Z,98449.25
2019-03-19T09:46:30.567Z,98451.37
2019-03-19T09:49:37.186Z,98447.52
2019-03-19T09:52:43.769Z,98446.94
2019-03-19T09:55:50.439Z,98445.33
2019-03-19T09:58:56.760Z,98444.27
2019-03-19T10:02:03.444Z,98453.84
2019-03-19T10:05:09.829Z,98462.75
2019-03-19T10:08:16.538Z,98454.75
2019-03-19T10:11:23.087Z,98454.42
2019-03-19T10:14:30.049Z,98451.81
2019-03-19T10:17:36.510Z,98449.17
2019-03-19T10:20:43.230Z,98458.18
2019-03-19T10:23:49.500Z,98458.39
2019-03-19T10:26:55.982Z,98460.59
2019-03-19T10:30:02.416Z,98470.44
2019-03-19T10:33:11.288Z,98474.31
2019-03-19T10:36:18.551Z,98473.00
2019-03-19T10:39:24.881Z,98477.05
2019-03-19T10:42:31.259Z,98478.58
2019-03-19T10:45:39.828Z,98491.70
2019-03-19T10:48:46.286Z,98476.82
2019-03-19T10:51:52.707Z,98476.58
2019-03-19T10:54:59.234Z,98483.40
2019-03-19T10:58:10.846Z,98485.41
2019-03-19T11:01:14.495Z,98482.47
2019-03-19T11:04:20.988Z,98481.12
2019-03-19T11:07:27.581Z,98474.57
2019-03-19T11:10:33.911Z,98469.92
2019-03-19T11:13:40.767Z,98481.63
2019-03-19T11:16:47.480Z,98474.02
2019-03-19T11:19:53.797Z,98483.05
2019-03-19T11:23:00.707Z,98477.21
2019-03-19T11:26:07.654Z,98475.89
2019-03-19T11:29:13.851Z,98469.37
2019-03-19T11:32:20.554Z,98471.95
2019-03-19T11:35:27.461Z,98479.73
2019-03-19T11:38:34.204Z,98476.40
2019-03-19T11:41:41.225Z,98473.67
2019-03-19T11:44:48.338Z,98475.39
2019-03-19T11:47:54.874Z,98480.30
2019-03-19T11:51:01.575Z,98476.59
2019-03-19T11:54:08.399Z,98469.25
2019-03-19T11:57:15.061Z,98466.73
2019-03-19T12:00:41.811Z,98478.29
2019-03-19T12:03:48.338Z,98489.10
2019-03-19T12:06:55.310Z,98485.56
2019-03-19T12:10:03.234Z,98491.75
2019-03-19T12:13:10.338Z,98489.25
2019-03-19T12:16:16.978Z,98489.97
2019-03-19T12:19:23.437Z,98483.64
2019-03-19T12:22:33.169Z,98487.32
2019-03-19T12:25:39.629Z,98487.11
2019-03-19T12:28:46.463Z,98494.38
2019-03-19T12:31:53.384Z,98503.48
2019-03-19T12:35:01.579Z,98486.56
2019-03-19T12:38:09.115Z,98490.22
2019-03-19T12:41:16.204Z,98487.77
2019-03-19T12:44:22.892Z,98490.67
2019-03-19T12:47:30.230Z,98484.87
2019-03-19T12:50:36.952Z,98487.37
2019-03-19T12:53:43.697Z,98475.54
2019-03-19T12:56:50.739Z,98482.63
2019-03-19T12:59:57.739Z,98489.06
2019-03-19T13:03:04.537Z,98491.06
2019-03-19T13:06:11.377Z,98489.37
2019-03-19T13:09:18.186Z,98487.33
2019-03-19T13:12:25.084Z,98474.54
2019-03-19T13:15:31.973Z,98479.28
2019-03-19T13:18:38.909Z,98477.69
2019-03-19T13:21:45.298Z,98481.63
2019-03-19T13:24:51.995Z,98481.09
2019-03-19T13:27:58.449Z,98479.42
2019-03-19T13:31:05.045Z,98481.67
2019-03-19T13:34:11.590Z,98483.41
2019-03-19T13:37:17.998Z,98485.86
2019-03-19T13:40:24.982Z,98481.02
2019-03-19T13:43:32.045Z,98489.12
2019-03-19T13:46:41.128Z,98494.50
2019-03-19T13:49:48.061Z,98493.49
2019-03-19T13:52:55.042Z,98491.68
2019-03-19T13:56:01.555Z,98499.20
2019-03-19T13:59:08.092Z,98499.03
2019-03-19T14:02:14.618Z,98494.55
2019-03-19T14:05:21.371Z,98502.84
2019-03-19T14:08:28.425Z,98494.23
2019-03-19T14:11:35.900Z,98493.83
2019-03-19T14:14:42.343Z,98487.86
2019-03-19T14:17:48.932Z,98493.42
2019-03-19T14:20:56.494Z,98496.60
2019-03-19T14:24:03.476Z,98489.59
2019-03-19T14:27:10.302Z,98503.63
2019-03-19T14:30:17.494Z,98509.64
2019-03-19T14:33:24.354Z,98510.66
2019-03-19T14:36:31.039Z,98511.25
2019-03-19T14:39:37.900Z,98508.87
2019-03-19T14:42:44.562Z,98508.87
2019-03-19T14:45:51.121Z,98501.44
2019-03-19T14:48:58.336Z,98510.00
2019-03-19T14:52:05.129Z,98509.65
2019-03-19T14:55:12.510Z,98513.33
2019-03-19T14:58:18.885Z,98507.35
2019-03-19T15:01:26.314Z,98504.86
2019-03-19T15:04:33.439Z,98510.09
2019-03-19T15:07:40.535Z,98505.31
2019-03-19T15:10:48.265Z,98499.27
2019-03-19T15:13:55.342Z,98500.05
2019-03-19T15:17:05.062Z,98500.45
2019-03-19T15:20:12.722Z,98503.41
2019-03-19T15:23:20.520Z,98499.97
2019-03-19T15:26:27.527Z,98492.77
2019-03-19T15:29:35.066Z,98497.94
2019-03-19T15:32:42.339Z,98500.77
2019-03-19T15:35:49.729Z,98502.36
2019-03-19T15:38:56.510Z,98501.98
2019-03-19T15:42:03.272Z,98504.23
2019-03-19T15:45:10.828Z,98502.26
2019-03-19T15:48:18.822Z,98506.90
2019-03-19T15:51:25.559Z,98507.00
2019-03-19T15:54:35.619Z,98508.56
2019-03-19T15:57:42.449Z,98517.55
2019-03-19T16:00:49.556Z,98521.22
2019-03-19T16:03:56.069Z,98522.05
2019-03-19T16:07:02.628Z,98530.72
2019-03-19T16:10:09.740Z,98527.20
2019-03-19T16:13:16.510Z,98528.05
2019-03-19T16:16:23.162Z,98531.17
2019-03-19T16:19:31.314Z,98543.31
2019-03-19T16:22:38.200Z,98538.40
2019-03-19T16:25:45.914Z,98544.25
2019-03-19T16:28:52.564Z,98546.64
2019-03-19T16:31:58.833Z,98552.02
2019-03-19T16:35:05.880Z,98554.53
2019-03-19T16:38:12.247Z,98567.16
2019-03-19T16:41:18.830Z,98569.98
2019-03-19T16:44:25.249Z,98574.81
2019-03-19T16:47:32.128Z,98579.93
2019-03-19T16:50:39.051Z,98581.19
2019-03-19T16:53:45.529Z,98586.45
2019-03-19T16:56:52.840Z,98583.37
2019-03-19T16:59:59.565Z,98588.55
2019-03-19T17:03:06.315Z,98579.82
2019-03-19T17:06:12.719Z,98589.05
2019-03-19T17:09:19.695Z,98595.10
2019-03-19T17:12:26.618Z,98607.19
2019-03-19T17:15:33.469Z,98610.88
2019-03-19T17:18:40.594Z,98613.17
2019-03-19T17:21:50.610Z,98618.33
2019-03-19T17:25:00.303Z,98621.87
2019-03-19T17:28:10.749Z,98632.97
2019-03-19T17:31:17.985Z,98628.27
2019-03-19T17:34:27.340Z,98633.84
2019-03-19T17:37:36.581Z,98642.85
2019-03-19T17:40:46.845Z,98638.36
2019-03-19T17:43:53.682Z,98639.63
2019-03-19T17:47:02.930Z,98655.05
2019-03-19T17:50:12.329Z,98652.64
2019-03-19T17:53:19.084Z,98652.92
2019-03-19T17:56:26.249Z,98668.58
2019-03-19T17:59:35.423Z,98666.48
2019-03-19T18:02:42.734Z,98676.09
2019-03-19T18:05:49.461Z,98680.02
2019-03-19T18:08:57.419Z,98682.53
2019-03-19T18:12:04.045Z,98692.91
2019-03-19T18:15:15.730Z,98700.38
2019-03-19T18:18:23.889Z,98704.67
2019-03-19T18:21:32.967Z,98708.24
2019-03-19T18:24:40.149Z,98707.84
2019-03-19T18:27:49.149Z,98708.11
2019-03-19T18:30:57.221Z,98715.56
2019-03-19T18:34:10.262Z,98715.66
2019-03-19T18:37:12.760Z,98714.41
2019-03-19T18:40:20.586Z,98719.42
2019-03-19T18:43:27.978Z,98718.30
2019-03-19T18:46:35.866Z,98726.95
2019-03-19T18:49:43.067Z,98728.48
2019-03-19T18:52:50.064Z,98723.50
2019-03-19T18:55:57.180Z,98736.22
2019-03-19T18:59:03.760Z,98737.53
2019-03-19T19:02:10.546Z,98739.47
2019-03-19T19:05:17.352Z,98738.03
2019-03-19T19:08:24.596Z,98743.80
2019-03-19T19:11:31.674Z,98736.19
2019-03-19T19:14:41.870Z,98745.94
2019-03-19T19:17:52.225Z,98742.09
2019-03-19T19:20:59.749Z,98751.45
2019-03-19T19:24:08.790Z,98751.13
2019-03-19T19:27:16.162Z,98758.96
2019-03-19T19:30:24.293Z,98763.52
2019-03-19T19:33:30.954Z,98766.15
2019-03-19T19:36:38.276Z,98765.67
2019-03-19T19:39:45.075Z,98762.62
2019-03-19T19:42:51.577Z,98764.14
2019-03-19T19:45:59.099Z,98771.45
2019-03-19T19:49:06.385Z,98769.56
2019-03-19T19:52:13.502Z,98771.92
2019-03-19T19:55:20.888Z,98775.86
2019-03-19T19:58:29.625Z,98775.91
2019-03-19T20:01:38.979Z,98768.58
2019-03-19T20:04:45.793Z,98775.58
2019-03-19T20:07:53.287Z,98774.77
2019-03-19T20:11:00.138Z,98778.49
2019-03-19T20:14:07.392Z,98786.14
2019-03-19T20:17:14.646Z,98788.59
2019-03-19T20:20:21.619Z,98786.20
2019-03-19T20:23:28.396Z,98786.42
2019-03-19T20:26:36.049Z,98787.80
2019-03-19T20:29:42.646Z,98787.55
2019-03-19T20:32:49.113Z,98795.73
2019-03-19T20:35:56.789Z,98797.98
2019-03-19T20:39:04.178Z,98804.69
2019-03-19T20:42:11.416Z,98803.53
2019-03-19T20:45:18.907Z,98806.72
2019-03-19T20:48:25.931Z,98808.52
2019-03-19T20:51:34.315Z,98817.00
2019-03-19T20:54:40.808Z,98814.52
2019-03-19T20:57:47.546Z,98826.27
2019-03-19T21:00:54.372Z,98829.36
2019-03-19T21:04:01.369Z,98833.75
2019-03-19T21:07:07.695Z,98836.88
2019-03-19T21:10:16.365Z,98845.20
2019-03-19T21:13:23.686Z,98842.11
2019-03-19T21:16:30.273Z,98847.35
2019-03-19T21:19:37.542Z,98852.18
2019-03-19T21:22:44.049Z,98851.88
2019-03-19T21:25:50.779Z,98851.92
2019-03-19T21:28:58.345Z,98859.16
2019-03-19T21:32:04.907Z,98861.09
2019-03-19T21:35:11.687Z,98861.94
2019-03-19T21:38:18.830Z,98861.69
2019-03-19T21:41:25.516Z,98856.27
2019-03-19T21:44:32.357Z,98869.60
2019-03-19T21:47:38.766Z,98868.48
2019-03-19T21:50:45.954Z,98865.59
2019-03-19T21:53:52.489Z,98862.62
2019-03-19T21:56:59.409Z,98868.64
2019-03-19T22:00:09.813Z,98873.02
2019-03-19T22:03:16.021Z,98871.27
2019-03-19T22:06:22.527Z,98878.70
2019-03-19T22:09:30.697Z,98880.78
2019-03-19T22:12:40.586Z,98877.70
2019-03-19T22:15:46.916Z,98876.52
2019-03-19T22:18:53.974Z,98875.06
2019-03-19T22:22:00.752Z,98882.05
2019-03-19T22:25:08.023Z,98878.33
2019-03-19T22:28:14.742Z,98883.63
2019-03-19T22:31:21.674Z,98875.77
2019-03-19T22:34:28.063Z,98873.33
2019-03-19T22:37:34.700Z,98873.02
2019-03-19T22:40:41.827Z,98882.90
2019-03-19T22:43:48.699Z,98885.95
2019-03-19T22:46:55.183Z,98888.31
2019-03-19T22:50:02.139Z,98888.81
2019-03-19T22:53:09.154Z,98883.59
2019-03-19T22:56:15.674Z,98884.86
2019-03-19T22:59:22.519Z,98890.94
2019-03-19T23:02:29.287Z,98889.39
2019-03-19T23:05:36.151Z,98894.59
2019-03-19T23:08:42.819Z,98898.45
2019-03-19T23:11:49.529Z,98899.31
2019-03-19T23:14:56.407Z,98907.21
2019-03-19T23:18:03.098Z,98909.73
2019-03-19T23:21:10.029Z,98914.92
2019-03-19T23:24:16.547Z,98912.84
2019-03-19T23:27:23.554Z,98917.47
2019-03-19T23:30:30.197Z,98923.28
2019-03-19T23:33:36.652Z,98925.44
2019-03-19T23:36:42.897Z,98915.78
2019-03-19T23:39:49.267Z,98920.13
2019-03-19T23:42:55.606Z,98923.03
2019-03-19T23:46:01.795Z,98930.41
2019-03-19T23:49:09.866Z,98931.26
2019-03-19T23:52:16.353Z,98926.53
2019-03-19T23:55:22.718Z,98934.69
2019-03-19T23:58:28.945Z,98928.16
